createdAt,value
2023-01-25T00:00:26.139Z,102047.84
2023-01-25T00:03:30.216Z,102037.94
2023-01-25T00:06:32.586Z,102054.00
2023-01-25T00:09:35.228Z,102051.47
2023-01-25T00:12:37.567Z,102043.84
2023-01-25T00:15:40.284Z,102059.31
2023-01-25T00:18:42.657Z,102073.91
2023-01-25T00:21:45.411Z,102062.66
2023-01-25T00:24:47.868Z,102068.81
2023-01-25T00:27:50.577Z,102067.09
2023-01-25T00:30:52.969Z,102066.47
2023-01-25T00:34:02.012Z,102065.84
2023-01-25T00:37:20.874Z,102068.34
2023-01-25T00:40:23.493Z,102057.59
2023-01-25T00:43:26.595Z,102061.16
2023-01-25T00:46:29.241Z,102049.53
2023-01-25T00:49:31.928Z,102062.41
2023-01-25T00:52:34.664Z,102045.28
2023-01-25T00:55:37.453Z,102064.31
2023-01-25T00:58:41.221Z,102071.31
2023-01-25T01:01:44.399Z,102066.03
2023-01-25T01:04:47.177Z,102074.50
2023-01-25T01:07:50.542Z,102070.91
2023-01-25T01:11:06.676Z,102076.81
2023-01-25T01:14:10.496Z,102079.34
2023-01-25T01:17:13.108Z,102076.38
2023-01-25T01:20:15.732Z,102077.87
2023-01-25T01:23:19.629Z,102070.66
2023-01-25T01:26:22.298Z,102081.22
2023-01-25T01:29:24.920Z,102072.12
2023-01-25T01:32:27.460Z,102073.59
2023-01-25T01:35:30.989Z,102082.03
2023-01-25T01:38:33.343Z,102076.31
2023-01-25T01:41:38.173Z,102091.34
2023-01-25T01:44:48.468Z,102085.84
2023-01-25T01:47:51.228Z,102084.78
2023-01-25T01:50:57.529Z,102074.41
2023-01-25T01:54:09.301Z,102062.94
2023-01-25T01:57:33.949Z,102076.06
2023-01-25T02:00:39.799Z,102069.50
2023-01-25T02:03:42.543Z,102072.00
2023-01-25T02:06:54.697Z,102072.19
2023-01-25T02:09:59.063Z,102065.88
2023-01-25T02:13:01.574Z,102068.16
2023-01-25T02:16:05.237Z,102065.88
2023-01-25T02:19:11.435Z,102060.16
2023-01-25T02:22:16.555Z,102064.19
2023-01-25T02:25:28.270Z,102058.91
2023-01-25T02:28:36.450Z,102070.78
2023-01-25T02:31:38.957Z,102060.84
2023-01-25T02:34:41.735Z,102054.66
2023-01-25T02:37:44.586Z,102054.50
2023-01-25T02:41:08.920Z,102039.66
2023-01-25T02:44:15.751Z,102047.28
2023-01-25T02:47:18.416Z,102042.00
2023-01-25T02:50:21.503Z,102020.88
2023-01-25T02:53:24.139Z,102023.81
2023-01-25T02:56:28.172Z,102014.94
2023-01-25T02:59:30.807Z,102007.97
2023-01-25T03:02:33.690Z,102029.75
2023-01-25T03:05:36.480Z,102025.09
2023-01-25T03:08:39.060Z,102011.53
2023-01-25T03:11:42.242Z,102011.94
2023-01-25T03:14:45.216Z,102018.88
2023-01-25T03:17:47.832Z,102023.13
2023-01-25T03:20:50.238Z,102014.41
2023-01-25T03:23:59.381Z,102028.78
2023-01-25T03:27:13.265Z,102015.22
2023-01-25T03:30:16.871Z,102018.88
2023-01-25T03:33:19.213Z,102020.09
2023-01-25T03:36:21.959Z,102012.87
2023-01-25T03:39:24.600Z,102011.97
2023-01-25T03:42:27.439Z,102018.44
2023-01-25T03:45:30.122Z,102019.25
2023-01-25T03:48:32.831Z,102027.94
2023-01-25T03:51:35.686Z,102022.59
2023-01-25T03:54:38.940Z,102008.63
2023-01-25T03:57:42.468Z,102013.66
2023-01-25T04:00:46.760Z,102011.75
2023-01-25T04:03:49.491Z,102027.53
2023-01-25T04:06:52.465Z,102022.22
2023-01-25T04:09:55.920Z,102017.84
2023-01-25T04:12:58.872Z,102021.81
2023-01-25T04:16:02.108Z,102018.69
2023-01-25T04:19:06.718Z,102019.75
2023-01-25T04:22:09.468Z,102016.47
2023-01-25T04:25:12.204Z,102024.56
2023-01-25T04:28:16.743Z,102034.53
2023-01-25T04:31:19.795Z,102028.06
2023-01-25T04:34:24.211Z,102030.03
2023-01-25T04:37:26.721Z,102033.19
2023-01-25T04:40:30.775Z,102030.44
2023-01-25T04:43:33.178Z,102040.22
2023-01-25T04:46:36.441Z,102036.44
2023-01-25T04:49:39.491Z,102024.62
2023-01-25T04:52:42.828Z,102027.25
2023-01-25T04:55:47.356Z,102033.34
2023-01-25T04:58:50.246Z,102024.88
2023-01-25T05:01:52.810Z,102028.84
2023-01-25T05:04:55.693Z,102020.75
2023-01-25T05:07:58.103Z,102033.81
2023-01-25T05:11:00.726Z,102034.22
2023-01-25T05:14:03.789Z,102036.72
2023-01-25T05:17:07.845Z,102042.75
2023-01-25T05:20:13.036Z,102042.06
2023-01-25T05:23:16.512Z,102043.59
2023-01-25T05:26:37.961Z,102040.88
2023-01-25T05:29:44.486Z,102031.19
2023-01-25T05:32:49.070Z,102045.25
2023-01-25T05:35:51.977Z,102048.69
2023-01-25T05:38:54.367Z,102044.91
2023-01-25T05:41:58.028Z,102053.16
2023-01-25T05:45:00.356Z,102035.00
2023-01-25T05:48:13.421Z,102045.59
2023-01-25T05:51:16.823Z,102037.37
2023-01-25T05:54:19.604Z,102018.56
2023-01-25T05:57:22.819Z,102027.25
2023-01-25T06:00:25.670Z,102034.72
2023-01-25T06:03:28.484Z,102039.34
2023-01-25T06:06:31.145Z,102027.13
2023-01-25T06:09:33.742Z,102023.53
2023-01-25T06:12:37.063Z,102024.81
2023-01-25T06:15:39.794Z,102040.06
2023-01-25T06:18:47.156Z,102041.50
2023-01-25T06:21:50.567Z,102041.72
2023-01-25T06:24:52.992Z,102045.16
2023-01-25T06:27:55.934Z,102059.31
2023-01-25T06:31:05.135Z,102057.41
2023-01-25T06:34:08.667Z,102066.12
2023-01-25T06:37:12.098Z,102058.28
2023-01-25T06:40:15.184Z,102049.81
2023-01-25T06:43:44.072Z,102062.94
2023-01-25T06:46:46.755Z,102062.69
2023-01-25T06:49:49.166Z,102067.09
2023-01-25T06:52:55.566Z,102062.66
2023-01-25T06:56:02.845Z,102057.94
2023-01-25T06:59:05.528Z,102053.91
2023-01-25T07:02:09.511Z,102071.50
2023-01-25T07:05:13.123Z,102069.41
2023-01-25T07:08:16.260Z,102069.88
2023-01-25T07:11:19.260Z,102062.25
2023-01-25T07:14:21.775Z,102071.09
2023-01-25T07:17:24.492Z,102072.16
2023-01-25T07:20:26.800Z,102065.16
2023-01-25T07:23:32.553Z,102058.69
2023-01-25T07:26:34.960Z,102052.97
2023-01-25T07:29:37.601Z,102058.44
2023-01-25T07:32:39.946Z,102053.66
2023-01-25T07:35:42.634Z,102068.06
2023-01-25T07:38:45.435Z,102059.88
2023-01-25T07:41:48.067Z,102044.72
2023-01-25T07:44:50.894Z,102051.50
2023-01-25T07:47:54.658Z,102042.25
2023-01-25T07:51:23.915Z,102056.03
2023-01-25T07:54:26.596Z,102041.44
2023-01-25T07:57:29.374Z,102065.13
2023-01-25T08:00:32.073Z,102061.53
2023-01-25T08:03:34.959Z,102063.66
2023-01-25T08:06:39.292Z,102057.75
2023-01-25T08:09:42.503Z,102054.16
2023-01-25T08:12:46.570Z,102061.78
2023-01-25T08:15:55.781Z,102049.16
2023-01-25T08:19:00.783Z,102045.81
2023-01-25T08:22:03.401Z,102050.50
2023-01-25T08:25:06.523Z,102060.22
2023-01-25T08:28:09.394Z,102050.50
2023-01-25T08:31:21.281Z,102043.56
2023-01-25T08:34:24.027Z,102040.37
2023-01-25T08:37:29.722Z,102035.31
2023-01-25T08:40:32.499Z,102050.31
2023-01-25T08:43:34.990Z,102046.34
2023-01-25T08:46:37.885Z,102037.50
2023-01-25T08:49:40.255Z,102041.31
2023-01-25T08:52:43.029Z,102037.94
2023-01-25T08:55:46.268Z,102040.47
2023-01-25T08:58:50.562Z,102035.00
2023-01-25T09:01:53.308Z,102017.22
2023-01-25T09:04:56.002Z,102034.13
2023-01-25T09:07:58.788Z,102032.44
2023-01-25T09:11:19.578Z,102034.97
2023-01-25T09:14:22.241Z,102037.94
2023-01-25T09:17:24.945Z,102021.47
2023-01-25T09:20:27.941Z,102036.87
2023-01-25T09:23:31.732Z,102033.72
2023-01-25T09:26:38.517Z,102031.16
2023-01-25T09:29:43.726Z,102029.50
2023-01-25T09:32:50.702Z,102032.66
2023-01-25T09:35:53.724Z,102025.66
2023-01-25T09:38:56.571Z,102008.50
2023-01-25T09:42:24.909Z,102012.13
2023-01-25T09:45:37.027Z,102024.81
2023-01-25T09:49:02.805Z,102018.25
2023-01-25T09:52:14.954Z,102015.94
2023-01-25T09:55:19.343Z,102005.56
2023-01-25T09:58:28.149Z,101998.81
2023-01-25T10:01:46.022Z,102003.88
2023-01-25T10:04:53.536Z,101999.25
2023-01-25T10:08:21.009Z,101988.88
2023-01-25T10:11:27.788Z,101973.84
2023-01-25T10:14:35.732Z,101975.75
2023-01-25T10:17:41.996Z,101966.03
2023-01-25T10:20:55.090Z,101972.78
2023-01-25T10:24:22.063Z,101957.97
2023-01-25T10:27:38.098Z,101957.94
2023-01-25T10:31:00.810Z,101945.09
2023-01-25T10:34:17.221Z,101953.50
2023-01-25T10:37:23.405Z,101944.59
2023-01-25T10:40:27.046Z,101944.63
2023-01-25T10:43:30.113Z,101943.53
2023-01-25T10:46:32.710Z,101931.72
2023-01-25T10:49:55.054Z,101939.09
2023-01-25T10:52:58.761Z,101926.78
2023-01-25T10:56:10.774Z,101924.44
2023-01-25T10:59:22.422Z,101929.03
2023-01-25T11:02:45.446Z,101921.41
2023-01-25T11:09:20.834Z,101912.38
2023-01-25T11:12:23.304Z,101914.28
2023-01-25T11:15:26.139Z,101907.09
2023-01-25T11:18:35.041Z,101893.59
2023-01-25T11:21:52.787Z,101897.38
2023-01-25T11:24:55.198Z,101893.59
2023-01-25T11:28:23.410Z,101884.06
2023-01-25T11:31:26.951Z,101877.87
2023-01-25T11:34:30.405Z,101876.53
2023-01-25T11:37:51.255Z,101874.13
2023-01-25T11:41:35.064Z,101861.03
2023-01-25T11:44:43.655Z,101858.13
2023-01-25T11:47:46.215Z,101846.94
2023-01-25T11:51:21.454Z,101843.50
2023-01-25T11:54:36.270Z,101832.19
2023-01-25T11:57:49.648Z,101813.53
2023-01-25T12:00:59.394Z,101808.94
2023-01-25T12:04:17.749Z,101810.59
2023-01-25T12:07:39.254Z,101795.59
2023-01-25T12:11:03.795Z,101792.81
2023-01-25T12:14:18.284Z,101801.00
2023-01-25T12:17:34.842Z,101795.31
2023-01-25T12:20:54.919Z,101784.12
2023-01-25T12:24:26.933Z,101767.62
2023-01-25T12:27:29.236Z,101775.47
2023-01-25T12:30:56.430Z,101786.81
2023-01-25T12:34:04.082Z,101778.87
2023-01-25T12:37:18.457Z,101777.22
2023-01-25T12:40:30.309Z,101764.53
2023-01-25T12:44:01.888Z,101764.38
2023-01-25T12:47:23.227Z,101774.41
2023-01-25T12:50:38.511Z,101765.72
2023-01-25T12:53:44.941Z,101756.56
2023-01-25T12:57:06.602Z,101752.53
2023-01-25T13:00:10.006Z,101762.22
2023-01-25T13:03:49.277Z,101750.53
2023-01-25T13:06:51.605Z,101734.72
2023-01-25T13:09:59.948Z,101733.12
2023-01-25T13:13:18.043Z,101734.25
2023-01-25T13:16:43.382Z,101734.91
2023-01-25T13:19:45.858Z,101722.22
2023-01-25T13:22:53.524Z,101715.75
2023-01-25T13:26:21.629Z,101707.38
2023-01-25T13:29:39.800Z,101710.28
2023-01-25T13:32:45.042Z,101715.09
2023-01-25T13:35:47.895Z,101723.53
2023-01-25T13:38:50.377Z,101709.78
2023-01-25T13:42:17.554Z,101717.75
2023-01-25T13:45:21.382Z,101706.12
2023-01-25T13:48:28.667Z,101707.84
2023-01-25T13:51:34.448Z,101709.66
2023-01-25T13:54:46.718Z,101693.09
2023-01-25T13:57:50.513Z,101700.63
2023-01-25T14:00:55.280Z,101699.19
2023-01-25T14:04:02.270Z,101701.25
2023-01-25T14:07:10.009Z,101693.06
2023-01-25T14:10:23.503Z,101688.16
2023-01-25T14:13:26.114Z,101687.72
2023-01-25T14:16:31.149Z,101679.44
2023-01-25T14:19:36.800Z,101689.69
2023-01-25T14:22:39.515Z,101699.19
2023-01-25T14:25:41.925Z,101692.62
2023-01-25T14:28:59.439Z,101699.59
2023-01-25T14:32:04.970Z,101691.59
2023-01-25T14:35:43.189Z,101683.44
2023-01-25T14:38:51.950Z,101682.94
2023-01-25T14:42:00.863Z,101679.84
2023-01-25T14:45:04.577Z,101676.09
2023-01-25T14:48:37.446Z,101681.44
2023-01-25T14:52:07.503Z,101681.47
2023-01-25T14:55:10.189Z,101677.94
2023-01-25T14:58:24.027Z,101687.97
2023-01-25T15:01:34.278Z,101673.91
2023-01-25T15:04:36.563Z,101674.78
2023-01-25T15:07:43.953Z,101662.72
2023-01-25T15:10:57.961Z,101665.56
2023-01-25T15:14:13.621Z,101669.78
2023-01-25T15:17:48.119Z,101668.72
2023-01-25T15:20:52.319Z,101672.25
2023-01-25T15:23:56.977Z,101674.84
2023-01-25T15:27:00.071Z,101664.13
2023-01-25T15:30:02.574Z,101668.28
2023-01-25T15:33:06.319Z,101667.72
2023-01-25T15:36:09.955Z,101650.87
2023-01-25T15:39:15.402Z,101668.84
2023-01-25T15:42:17.703Z,101661.06
2023-01-25T15:45:20.338Z,101669.38
2023-01-25T15:48:40.872Z,101664.97
2023-01-25T15:51:43.658Z,101659.63
2023-01-25T15:54:52.113Z,101662.12
2023-01-25T15:58:04.314Z,101658.75
2023-01-25T16:01:06.754Z,101667.03
2023-01-25T16:04:11.059Z,101666.91
2023-01-25T16:07:25.149Z,101666.09
2023-01-25T16:10:27.828Z,101657.63
2023-01-25T16:13:30.239Z,101639.03
2023-01-25T16:16:37.610Z,101652.44
2023-01-25T16:19:40.010Z,101655.53
2023-01-25T16:22:42.637Z,101647.44
2023-01-25T16:25:48.569Z,101648.97
2023-01-25T16:28:51.509Z,101653.50
2023-01-25T16:31:55.006Z,101648.41
2023-01-25T16:34:57.771Z,101657.09
2023-01-25T16:38:00.127Z,101648.34
2023-01-25T16:41:02.765Z,101653.28
2023-01-25T16:44:05.166Z,101642.50
2023-01-25T16:47:08.009Z,101642.00
2023-01-25T16:50:16.241Z,101642.66
2023-01-25T16:53:18.956Z,101649.16
2023-01-25T16:56:24.086Z,101650.47
2023-01-25T16:59:26.831Z,101628.19
2023-01-25T17:02:29.302Z,101642.09
2023-01-25T17:05:34.128Z,101641.59
2023-01-25T17:08:36.502Z,101636.97
2023-01-25T17:11:39.997Z,101624.66
2023-01-25T17:14:42.414Z,101637.16
2023-01-25T17:17:45.274Z,101639.63
2023-01-25T17:20:56.918Z,101630.44
2023-01-25T17:24:02.234Z,101617.78
2023-01-25T17:27:05.260Z,101610.28
2023-01-25T17:30:09.057Z,101631.50
2023-01-25T17:33:12.897Z,101633.97
2023-01-25T17:36:16.136Z,101626.78
2023-01-25T17:39:19.763Z,101615.31
2023-01-25T17:42:22.441Z,101609.13
2023-01-25T17:45:27.086Z,101588.28
2023-01-25T17:48:29.789Z,101585.38
2023-01-25T17:51:33.506Z,101588.78
2023-01-25T17:54:36.380Z,101604.00
2023-01-25T17:57:38.714Z,101585.09
2023-01-25T18:00:41.332Z,101593.19
2023-01-25T18:03:45.800Z,101592.34
2023-01-25T18:06:48.157Z,101584.78
2023-01-25T18:09:50.974Z,101574.47
2023-01-25T18:13:03.983Z,101578.22
2023-01-25T18:16:08.505Z,101584.12
2023-01-25T18:19:11.189Z,101576.31
2023-01-25T18:22:14.090Z,101573.13
2023-01-25T18:25:36.735Z,101576.72
2023-01-25T18:28:39.473Z,101570.38
2023-01-25T18:31:42.351Z,101579.50
2023-01-25T18:34:46.682Z,101573.00
2023-01-25T18:37:49.291Z,101575.59
2023-01-25T18:40:52.489Z,101565.28
2023-01-25T18:43:56.659Z,101548.78
2023-01-25T18:46:59.671Z,101542.88
2023-01-25T18:50:02.200Z,101542.22
2023-01-25T18:53:04.831Z,101547.81
2023-01-25T18:56:11.464Z,101527.06
2023-01-25T18:59:14.150Z,101540.00
2023-01-25T19:02:17.769Z,101517.69
2023-01-25T19:05:21.050Z,101531.50
2023-01-25T19:08:23.581Z,101531.06
2023-01-25T19:11:26.716Z,101522.81
2023-01-25T19:14:29.109Z,101521.31
2023-01-25T19:17:32.449Z,101499.44
2023-01-25T19:20:34.739Z,101513.38
2023-01-25T19:23:39.057Z,101517.06
2023-01-25T19:26:41.418Z,101507.50
2023-01-25T19:29:44.057Z,101491.50
2023-01-25T19:32:46.479Z,101495.38
2023-01-25T19:35:49.208Z,101499.66
2023-01-25T19:38:51.574Z,101498.25
2023-01-25T19:41:54.607Z,101483.28
2023-01-25T19:44:57.129Z,101497.25
2023-01-25T19:48:00.140Z,101488.84
2023-01-25T19:51:10.936Z,101490.47
2023-01-25T19:54:31.546Z,101488.84
2023-01-25T19:57:35.105Z,101491.31
2023-01-25T20:00:38.173Z,101497.66
2023-01-25T20:03:41.289Z,101493.06
2023-01-25T20:06:44.023Z,101488.81
2023-01-25T20:09:46.758Z,101471.91
2023-01-25T20:12:49.088Z,101480.75
2023-01-25T20:15:51.918Z,101470.22
2023-01-25T20:18:55.856Z,101468.59
2023-01-25T20:22:00.536Z,101461.66
2023-01-25T20:25:03.008Z,101459.69
2023-01-25T20:28:05.652Z,101466.84
2023-01-25T20:31:41.217Z,101457.53
2023-01-25T20:34:44.300Z,101451.56
2023-01-25T20:37:49.163Z,101460.28
2023-01-25T20:40:52.193Z,101441.81
2023-01-25T20:44:08.696Z,101439.22
2023-01-25T20:47:11.439Z,101446.47
2023-01-25T20:50:13.994Z,101447.16
2023-01-25T20:53:17.263Z,101438.47
2023-01-25T20:56:21.507Z,101441.13
2023-01-25T20:59:24.288Z,101441.53
2023-01-25T21:02:26.610Z,101436.47
2023-01-25T21:05:29.462Z,101438.13
2023-01-25T21:08:31.872Z,101426.44
2023-01-25T21:11:34.761Z,101427.47
2023-01-25T21:14:37.336Z,101422.12
2023-01-25T21:17:40.033Z,101419.03
2023-01-25T21:20:42.439Z,101414.06
2023-01-25T21:23:47.259Z,101416.00
2023-01-25T21:26:49.692Z,101408.81
2023-01-25T21:29:52.526Z,101406.59
2023-01-25T21:32:54.970Z,101409.81
2023-01-25T21:36:01.113Z,101403.06
2023-01-25T21:39:03.854Z,101394.22
2023-01-25T21:42:06.462Z,101404.31
2023-01-25T21:45:28.823Z,101398.88
2023-01-25T21:48:50.467Z,101402.25
2023-01-25T21:51:54.534Z,101392.91
2023-01-25T21:54:57.143Z,101375.59
2023-01-25T21:57:59.585Z,101386.97
2023-01-25T22:01:04.071Z,101379.72
2023-01-25T22:04:06.889Z,101379.25
2023-01-25T22:07:11.082Z,101380.03
2023-01-25T22:10:13.906Z,101372.31
2023-01-25T22:13:16.440Z,101379.66
2023-01-25T22:16:19.144Z,101377.34
2023-01-25T22:19:22.105Z,101374.91
2023-01-25T22:22:24.719Z,101363.75
2023-01-25T22:25:27.164Z,101363.44
2023-01-25T22:28:53.300Z,101363.16
2023-01-25T22:31:56.790Z,101365.59
2023-01-25T22:35:00.306Z,101364.06
2023-01-25T22:38:02.660Z,101356.50
2023-01-25T22:41:18.234Z,101362.37
2023-01-25T22:44:21.494Z,101352.84
2023-01-25T22:47:24.494Z,101352.84
2023-01-25T22:50:27.017Z,101338.72
2023-01-25T22:53:30.416Z,101353.44
2023-01-25T22:56:34.139Z,101344.12
2023-01-25T22:59:36.758Z,101329.19
2023-01-25T23:02:39.057Z,101343.22
2023-01-25T23:05:41.784Z,101339.00
2023-01-25T23:08:45.072Z,101320.84
2023-01-25T23:11:47.712Z,101324.28
2023-01-25T23:14:53.925Z,101330.22
2023-01-25T23:18:15.491Z,101322.47
2023-01-25T23:21:21.953Z,101328.41
2023-01-25T23:24:26.568Z,101320.06
2023-01-25T23:27:29.269Z,101307.25
2023-01-25T23:30:32.009Z,101313.75
2023-01-25T23:33:34.391Z,101312.16
2023-01-25T23:36:42.302Z,101305.44
2023-01-25T23:39:44.705Z,101294.31
2023-01-25T23:42:47.425Z,101295.97
2023-01-25T23:45:49.755Z,101296.34
2023-01-25T23:48:52.892Z,101293.28
2023-01-25T23:51:55.646Z,101290.87
2023-01-25T23:54:58.426Z,101281.06
2023-01-25T23:58:00.755Z,101279.41
